createdAt,value
2018-01-04T00:00:05.639Z,93508.55
2018-01-04T00:02:33.176Z,93509.38
2018-01-04T00:05:00.811Z,93519.08
2018-01-04T00:07:28.348Z,93525.86
2018-01-04T00:09:55.879Z,93532.52
2018-01-04T00:12:23.474Z,93522.81
2018-01-04T00:14:51.003Z,93520.27
2018-01-04T00:17:18.601Z,93531.83
2018-01-04T00:19:46.142Z,93536.92
2018-01-04T00:22:13.708Z,93540.52
2018-01-04T00:24:41.300Z,93543.60
2018-01-04T00:27:08.851Z,93548.02
2018-01-04T00:29:36.474Z,93542.05
2018-01-04T00:32:04.149Z,93539.50
2018-01-04T00:34:31.772Z,93540.31
2018-01-04T00:36:59.299Z,93547.02
2018-01-04T00:39:26.827Z,93541.01
2018-01-04T00:41:54.417Z,93540.06
2018-01-04T00:44:22.024Z,93541.33
2018-01-04T00:46:49.548Z,93542.16
2018-01-04T00:49:17.098Z,93542.52
2018-01-04T00:51:44.696Z,93536.47
2018-01-04T00:54:12.317Z,93537.62
2018-01-04T00:56:39.921Z,93529.92
2018-01-04T00:59:07.518Z,93518.49
2018-01-04T01:01:35.052Z,93522.86
2018-01-04T01:04:02.605Z,93514.93
2018-01-04T01:06:30.175Z,93511.69
2018-01-04T01:08:57.706Z,93511.88
2018-01-04T01:11:25.231Z,93517.96
2018-01-04T01:13:52.824Z,93510.77
2018-01-04T01:16:20.421Z,93505.27
2018-01-04T01:18:47.957Z,93506.13
2018-01-04T01:21:15.494Z,93503.53
2018-01-04T01:23:43.103Z,93499.17
2018-01-04T01:26:10.693Z,93487.25
2018-01-04T01:28:38.227Z,93484.65
2018-01-04T01:31:05.757Z,93479.83
2018-01-04T01:33:33.356Z,93475.92
2018-01-04T01:36:00.968Z,93472.46
2018-01-04T01:38:28.576Z,93468.59
2018-01-04T01:40:56.139Z,93467.77
2018-01-04T01:43:23.668Z,93460.13
2018-01-04T01:45:51.204Z,93456.48
2018-01-04T01:48:18.801Z,93461.17
2018-01-04T01:50:46.397Z,93456.25
2018-01-04T01:53:13.961Z,93451.79
2018-01-04T01:55:41.484Z,93452.25
2018-01-04T01:58:09.095Z,93442.46
2018-01-04T02:00:36.630Z,93440.68
2018-01-04T02:03:04.167Z,93445.32
2018-01-04T02:05:31.698Z,93442.23
2018-01-04T02:07:59.230Z,93446.41
2018-01-04T02:10:26.799Z,93443.60
2018-01-04T02:12:54.389Z,93441.88
2018-01-04T02:15:21.917Z,93443.09
2018-01-04T02:17:49.557Z,93433.77
2018-01-04T02:20:29.028Z,93438.37
2018-01-04T02:23:08.525Z,93436.72
2018-01-04T02:25:47.818Z,93436.91
2018-01-04T02:28:27.086Z,93436.95
2018-01-04T02:31:06.354Z,93432.44
2018-01-04T02:33:45.920Z,93432.95
2018-01-04T02:36:25.193Z,93431.95
2018-01-04T02:42:06.424Z,93424.16
2018-01-04T02:44:40.028Z,93428.49
2018-01-04T02:47:07.553Z,93435.81
2018-01-04T02:49:35.104Z,93437.87
2018-01-04T02:52:02.625Z,93441.59
2018-01-04T02:54:30.247Z,93452.12
2018-01-04T02:56:57.883Z,93449.92
2018-01-04T02:59:25.473Z,93453.70
2018-01-04T03:01:53.072Z,93454.08
2018-01-04T03:04:20.673Z,93460.71
2018-01-04T03:06:48.286Z,93455.61
2018-01-04T03:09:15.810Z,93463.54
2018-01-04T03:11:43.330Z,93457.98
2018-01-04T03:14:10.907Z,93457.12
2018-01-04T03:16:38.500Z,93453.47
2018-01-04T03:19:06.097Z,93454.39
2018-01-04T03:21:33.622Z,93451.07
2018-01-04T03:24:01.155Z,93452.06
2018-01-04T03:26:34.194Z,93450.97
2018-01-04T03:29:07.315Z,93450.61
2018-01-04T03:31:40.531Z,93455.38
2018-01-04T03:34:13.694Z,93458.47
2018-01-04T03:36:46.651Z,93455.11
2018-01-04T03:39:19.649Z,93458.11
2018-01-04T03:44:53.544Z,93455.92
2018-01-04T03:47:26.734Z,93452.02
2018-01-04T03:49:59.795Z,93459.94
2018-01-04T03:52:32.233Z,93463.59
2018-01-04T03:55:05.243Z,93469.32
2018-01-04T03:57:38.493Z,93457.62
2018-01-04T04:00:11.720Z,93465.62
2018-01-04T04:02:44.823Z,93466.13
2018-01-04T04:05:17.888Z,93467.48
2018-01-04T04:07:45.442Z,93472.45
2018-01-04T04:10:12.967Z,93472.45
2018-01-04T04:12:40.482Z,93473.73
2018-01-04T04:15:08.105Z,93474.95
2018-01-04T04:17:35.630Z,93471.36
2018-01-04T04:20:03.197Z,93470.14
2018-01-04T04:22:30.731Z,93472.18
2018-01-04T04:24:58.254Z,93480.47
2018-01-04T04:27:25.782Z,93478.27
2018-01-04T04:29:53.316Z,93478.19
2018-01-04T04:32:20.907Z,93479.60
2018-01-04T04:34:48.427Z,93480.83
2018-01-04T04:37:16.022Z,93480.59
2018-01-04T04:39:43.548Z,93488.84
2018-01-04T04:42:11.076Z,93486.38
2018-01-04T04:44:38.648Z,93488.47
2018-01-04T04:47:06.245Z,93489.66
2018-01-04T04:49:33.829Z,93486.81
2018-01-04T04:52:01.381Z,93490.77
2018-01-04T04:54:28.976Z,93492.77
2018-01-04T04:56:56.569Z,93489.18
2018-01-04T04:59:24.162Z,93493.00
2018-01-04T05:01:51.753Z,93491.86
2018-01-04T05:04:19.339Z,93489.12
2018-01-04T05:06:46.867Z,93489.03
2018-01-04T05:09:14.420Z,93493.57
2018-01-04T05:11:42.022Z,93491.20
2018-01-04T05:14:09.546Z,93495.94
2018-01-04T05:16:37.147Z,93502.41
2018-01-04T05:19:04.820Z,93494.35
2018-01-04T05:21:32.414Z,93508.09
2018-01-04T05:24:00.007Z,93502.05
2018-01-04T05:26:27.600Z,93502.77
2018-01-04T05:28:55.123Z,93507.41
2018-01-04T05:31:22.709Z,93513.24
2018-01-04T05:33:50.308Z,93509.78
2018-01-04T05:36:17.917Z,93508.38
2018-01-04T05:38:45.446Z,93512.61
2018-01-04T05:41:13.041Z,93514.34
2018-01-04T05:43:40.638Z,93515.41
2018-01-04T05:46:08.233Z,93512.50
2018-01-04T05:48:35.755Z,93513.88
2018-01-04T05:51:03.346Z,93512.32
2018-01-04T05:53:30.941Z,93512.70
2018-01-04T05:55:58.460Z,93510.15
2018-01-04T05:58:25.980Z,93509.23
2018-01-04T06:00:53.498Z,93510.05
2018-01-04T06:03:21.052Z,93505.36
2018-01-04T06:05:48.643Z,93500.77
2018-01-04T06:08:16.163Z,93505.00
2018-01-04T06:10:43.750Z,93503.68
2018-01-04T06:13:11.341Z,93510.82
2018-01-04T06:15:38.870Z,93512.87
2018-01-04T06:18:06.467Z,93515.74
2018-01-04T06:20:34.021Z,93522.98
2018-01-04T06:23:01.608Z,93518.88
2018-01-04T06:25:29.136Z,93524.48
2018-01-04T06:27:56.725Z,93532.71
2018-01-04T06:30:24.320Z,93531.20
2018-01-04T06:32:51.914Z,93531.84
2018-01-04T06:35:19.430Z,93532.42
2018-01-04T06:37:46.985Z,93536.75
2018-01-04T06:40:14.510Z,93541.52
2018-01-04T06:42:42.096Z,93545.80
2018-01-04T06:45:09.693Z,93551.30
2018-01-04T06:47:37.276Z,93555.00
2018-01-04T06:50:04.859Z,93559.19
2018-01-04T06:52:32.379Z,93562.83
2018-01-04T06:55:00.002Z,93560.16
2018-01-04T06:57:27.596Z,93561.42
2018-01-04T06:59:55.176Z,93567.58
2018-01-04T07:02:22.760Z,93564.57
2018-01-04T07:04:50.350Z,93566.22
2018-01-04T07:07:17.875Z,93572.95
2018-01-04T07:09:45.460Z,93576.42
2018-01-04T07:12:12.983Z,93574.41
2018-01-04T07:14:40.581Z,93573.26
2018-01-04T07:17:08.173Z,93576.77
2018-01-04T07:19:35.701Z,93573.78
2018-01-04T07:22:03.254Z,93576.33
2018-01-04T07:24:30.775Z,93584.20
2018-01-04T07:26:58.373Z,93580.09
2018-01-04T07:29:25.891Z,93580.50
2018-01-04T07:31:53.416Z,93586.00
2018-01-04T07:34:21.000Z,93583.79
2018-01-04T07:36:48.520Z,93590.92
2018-01-04T07:39:16.075Z,93601.45
2018-01-04T07:41:43.600Z,93599.67
2018-01-04T07:44:11.185Z,93600.41
2018-01-04T07:46:38.712Z,93601.97
2018-01-04T07:49:06.312Z,93598.55
2018-01-04T07:51:33.908Z,93600.19
2018-01-04T07:54:01.497Z,93605.58
2018-01-04T07:56:29.108Z,93609.27
2018-01-04T07:58:56.627Z,93609.40
2018-01-04T08:01:24.221Z,93608.58
2018-01-04T08:03:51.747Z,93607.55
2018-01-04T08:06:19.272Z,93612.75
2018-01-04T08:08:46.865Z,93613.73
2018-01-04T08:11:14.383Z,93617.56
2018-01-04T08:13:42.013Z,93613.33
2018-01-04T08:16:09.600Z,93619.70
2018-01-04T08:18:37.193Z,93626.36
2018-01-04T08:21:04.706Z,93627.99
2018-01-04T08:23:32.228Z,93625.90
2018-01-04T08:25:59.861Z,93630.29
2018-01-04T08:28:27.449Z,93635.30
2018-01-04T08:30:54.963Z,93634.76
2018-01-04T08:33:22.478Z,93643.27
2018-01-04T08:35:50.074Z,93646.68
2018-01-04T08:38:17.666Z,93654.50
2018-01-04T08:40:45.184Z,93641.96
2018-01-04T08:43:12.800Z,93650.52
2018-01-04T08:45:40.409Z,93648.55
2018-01-04T08:48:07.997Z,93653.65
2018-01-04T08:50:35.590Z,93654.52
2018-01-04T08:53:03.111Z,93657.42
2018-01-04T08:55:30.702Z,93649.25
2018-01-04T08:57:58.285Z,93650.39
2018-01-04T09:00:25.918Z,93654.50
2018-01-04T09:02:53.503Z,93654.45
2018-01-04T09:05:21.023Z,93651.16
2018-01-04T09:07:48.609Z,93652.03
2018-01-04T09:10:16.128Z,93654.70
2018-01-04T09:12:43.714Z,93655.49
2018-01-04T09:15:11.293Z,93655.62
2018-01-04T09:17:38.816Z,93657.95
2018-01-04T09:20:06.401Z,93655.31
2018-01-04T09:22:33.918Z,93661.97
2018-01-04T09:25:01.505Z,93664.89
2018-01-04T09:27:29.020Z,93661.34
2018-01-04T09:29:56.633Z,93663.39
2018-01-04T09:32:24.147Z,93662.58
2018-01-04T09:34:51.777Z,93670.73
2018-01-04T09:37:19.300Z,93672.13
2018-01-04T09:39:46.814Z,93675.25
2018-01-04T09:42:14.408Z,93661.59
2018-01-04T09:44:43.057Z,93661.52
2018-01-04T09:47:10.679Z,93662.70
2018-01-04T09:49:38.200Z,93659.66
2018-01-04T09:52:05.792Z,93665.63
2018-01-04T09:54:33.372Z,93657.24
2018-01-04T09:57:00.901Z,93657.77
2018-01-04T09:59:28.415Z,93655.40
2018-01-04T10:01:55.938Z,93663.14
2018-01-04T10:04:23.557Z,93653.48
2018-01-04T10:06:51.140Z,93660.30
2018-01-04T10:09:18.655Z,93655.20
2018-01-04T10:11:46.237Z,93656.36
2018-01-04T10:14:13.752Z,93649.41
2018-01-04T10:16:41.271Z,93655.90
2018-01-04T10:19:08.860Z,93649.89
2018-01-04T10:21:36.375Z,93643.69
2018-01-04T10:24:03.961Z,93644.56
2018-01-04T10:26:31.477Z,93636.95
2018-01-04T10:28:58.995Z,93647.16
2018-01-04T10:31:26.543Z,93647.97
2018-01-04T10:33:54.065Z,93653.30
2018-01-04T10:36:21.587Z,93654.13
2018-01-04T10:38:49.175Z,93666.45
2018-01-04T10:41:16.756Z,93657.05
2018-01-04T10:43:44.336Z,93664.48
2018-01-04T10:46:11.924Z,93664.08
2018-01-04T10:48:39.541Z,93663.72
2018-01-04T10:51:07.055Z,93670.91
2018-01-04T10:53:34.644Z,93666.22
2018-01-04T10:56:02.164Z,93669.09
2018-01-04T10:58:29.681Z,93671.06
2018-01-04T11:00:57.268Z,93675.25
2018-01-04T11:03:24.849Z,93683.44
2018-01-04T11:05:52.393Z,93683.89
2018-01-04T11:08:19.993Z,93680.64
2018-01-04T11:10:47.511Z,93674.95
2018-01-04T11:13:15.092Z,93674.49
2018-01-04T11:15:42.623Z,93683.65
2018-01-04T11:18:10.139Z,93670.38
2018-01-04T11:20:37.727Z,93660.43
2018-01-04T11:23:05.281Z,93673.77
2018-01-04T11:25:32.885Z,93669.45
2018-01-04T11:28:00.545Z,93667.58
2018-01-04T11:30:28.091Z,93674.41
2018-01-04T11:32:55.616Z,93673.50
2018-01-04T11:35:23.249Z,93674.77
2018-01-04T11:37:50.776Z,93674.31
2018-01-04T11:40:18.315Z,93672.55
2018-01-04T11:42:45.910Z,93664.53
2018-01-04T11:45:13.641Z,93662.48
2018-01-04T11:47:41.175Z,93665.44
2018-01-04T11:50:08.776Z,93665.03
2018-01-04T11:52:36.487Z,93668.69
2018-01-04T11:55:04.037Z,93673.20
2018-01-04T11:57:31.560Z,93678.06
2018-01-04T11:59:59.132Z,93680.61
2018-01-04T12:02:26.668Z,93679.41
2018-01-04T12:04:54.336Z,93677.20
2018-01-04T12:07:21.886Z,93676.00
2018-01-04T12:09:49.546Z,93685.30
2018-01-04T12:12:17.146Z,93681.84
2018-01-04T12:14:44.688Z,93687.63
2018-01-04T12:17:12.293Z,93688.73
2018-01-04T12:19:39.816Z,93687.33
2018-01-04T12:22:13.678Z,93682.14
2018-01-04T12:24:41.194Z,93691.98
2018-01-04T12:27:08.744Z,93690.58
2018-01-04T12:29:36.373Z,93693.03
2018-01-04T12:32:06.499Z,93692.44
2018-01-04T12:34:34.130Z,93699.98
2018-01-04T12:37:01.824Z,93692.39
2018-01-04T12:39:29.407Z,93689.30
2018-01-04T12:41:56.923Z,93692.27
2018-01-04T12:44:24.440Z,93685.80
2018-01-04T12:46:52.067Z,93701.14
2018-01-04T12:49:19.592Z,93707.05
2018-01-04T12:51:47.220Z,93708.33
2018-01-04T12:54:14.859Z,93707.47
2018-01-04T12:56:42.383Z,93714.70
2018-01-04T12:59:09.948Z,93720.09
2018-01-04T13:01:37.532Z,93723.05
2018-01-04T13:04:05.128Z,93719.55
2018-01-04T13:06:32.835Z,93725.06
2018-01-04T13:09:00.469Z,93727.56
2018-01-04T13:11:28.061Z,93737.36
2018-01-04T13:13:55.603Z,93733.66
2018-01-04T13:16:23.135Z,93736.37
2018-01-04T13:18:50.662Z,93737.12
2018-01-04T13:21:18.188Z,93735.10
2018-01-04T13:23:45.774Z,93741.52
2018-01-04T13:26:13.410Z,93735.43
2018-01-04T13:28:41.043Z,93740.77
2018-01-04T13:31:08.702Z,93743.68
2018-01-04T13:33:36.282Z,93752.54
2018-01-04T13:36:03.898Z,93751.14
2018-01-04T13:38:31.580Z,93754.32
2018-01-04T13:40:59.111Z,93755.02
2018-01-04T13:43:26.743Z,93749.70
2018-01-04T13:45:54.332Z,93754.46
2018-01-04T13:48:21.847Z,93755.49
2018-01-04T13:53:19.697Z,93749.05
2018-01-04T13:55:47.304Z,93745.72
2018-01-04T13:58:14.843Z,93743.70
2018-01-04T14:00:42.445Z,93746.71
2018-01-04T14:03:10.064Z,93742.56
2018-01-04T14:05:37.661Z,93738.73
2018-01-04T14:08:05.289Z,93744.81
2018-01-04T14:10:32.820Z,93747.00
2018-01-04T14:13:00.348Z,93748.69
2018-01-04T14:15:27.933Z,93752.75
2018-01-04T14:17:55.534Z,93750.45
2018-01-04T14:20:23.162Z,93752.42
2018-01-04T14:22:50.787Z,93756.81
2018-01-04T14:25:18.375Z,93759.44
2018-01-04T14:27:45.892Z,93755.06
2018-01-04T14:30:13.489Z,93760.12
2018-01-04T14:32:41.070Z,93763.00
2018-01-04T14:35:08.654Z,93763.28
2018-01-04T14:37:36.274Z,93764.76
2018-01-04T14:40:03.812Z,93768.99
2018-01-04T14:42:31.440Z,93770.31
2018-01-04T14:44:58.961Z,93780.22
2018-01-04T14:47:26.557Z,93791.69
2018-01-04T14:49:54.075Z,93792.03
2018-01-04T14:52:21.615Z,93786.78
2018-01-04T14:54:49.172Z,93795.50
2018-01-04T14:57:16.773Z,93801.30
2018-01-04T14:59:44.361Z,93801.96
2018-01-04T15:02:11.950Z,93795.66
2018-01-04T15:04:39.466Z,93798.21
2018-01-04T15:07:07.016Z,93795.38
2018-01-04T15:09:34.531Z,93798.71
2018-01-04T15:12:02.069Z,93806.44
2018-01-04T15:14:29.599Z,93805.98
2018-01-04T15:16:57.259Z,93814.13
2018-01-04T15:19:24.806Z,93818.89
2018-01-04T15:21:52.398Z,93828.30
2018-01-04T15:24:19.957Z,93829.98
2018-01-04T15:26:47.538Z,93818.98
2018-01-04T15:29:15.131Z,93822.39
2018-01-04T15:31:42.644Z,93817.29
2018-01-04T15:34:10.163Z,93821.52
2018-01-04T15:36:37.718Z,93820.83
2018-01-04T15:39:05.257Z,93830.27
2018-01-04T15:41:32.881Z,93829.09
2018-01-04T15:44:00.403Z,93830.03
2018-01-04T15:46:27.917Z,93828.80
2018-01-04T15:48:55.433Z,93831.83
2018-01-04T15:51:23.030Z,93843.75
2018-01-04T15:53:50.547Z,93844.20
2018-01-04T15:56:18.136Z,93840.02
2018-01-04T15:58:45.664Z,93838.81
2018-01-04T16:01:13.253Z,93837.95
2018-01-04T16:03:40.837Z,93836.31
2018-01-04T16:06:08.363Z,93842.27
2018-01-04T16:08:35.883Z,93849.09
2018-01-04T16:11:03.466Z,93844.12
2018-01-04T16:13:31.092Z,93852.13
2018-01-04T16:15:58.681Z,93858.95
2018-01-04T16:18:26.195Z,93859.48
2018-01-04T16:20:53.786Z,93866.19
2018-01-04T16:23:21.318Z,93872.56
2018-01-04T16:25:48.929Z,93871.94
2018-01-04T16:28:16.549Z,93879.47
2018-01-04T16:30:44.143Z,93882.02
2018-01-04T16:33:11.670Z,93878.19
2018-01-04T16:35:39.260Z,93879.87
2018-01-04T16:38:06.859Z,93884.52
2018-01-04T16:40:34.379Z,93886.50
2018-01-04T16:43:01.948Z,93887.31
2018-01-04T16:45:29.484Z,93890.73
2018-01-04T16:47:57.004Z,93897.59
2018-01-04T16:50:24.593Z,93898.95
2018-01-04T16:52:52.177Z,93898.00
2018-01-04T16:55:19.691Z,93905.08
2018-01-04T16:57:47.285Z,93910.75
2018-01-04T17:00:14.908Z,93907.10
2018-01-04T17:02:42.433Z,93910.20
2018-01-04T17:05:09.959Z,93907.52
2018-01-04T17:07:37.480Z,93913.03
2018-01-04T17:10:05.104Z,93916.91
2018-01-04T17:12:32.639Z,93916.45
2018-01-04T17:15:00.251Z,93925.45
2018-01-04T17:17:27.836Z,93935.28
2018-01-04T17:19:55.369Z,93933.88
2018-01-04T17:22:23.001Z,93934.05
2018-01-04T17:24:50.610Z,93943.83
2018-01-04T17:27:18.205Z,93937.62
2018-01-04T17:29:45.768Z,93926.72
2018-01-04T17:32:13.385Z,93927.17
2018-01-04T17:34:40.916Z,93932.41
2018-01-04T17:37:08.589Z,93938.62
2018-01-04T17:39:36.197Z,93944.80
2018-01-04T17:42:03.731Z,93943.36
2018-01-04T17:44:31.317Z,93932.20
2018-01-04T17:46:58.941Z,93936.48
2018-01-04T17:49:26.503Z,93943.40
2018-01-04T17:51:54.109Z,93937.96
2018-01-04T17:54:21.728Z,93948.63
2018-01-04T17:56:49.358Z,93949.06
2018-01-04T17:59:16.877Z,93941.41
2018-01-04T18:01:44.464Z,93948.83
2018-01-04T18:04:11.982Z,93950.92
2018-01-04T18:06:39.503Z,93958.53
2018-01-04T18:09:07.035Z,93960.09
2018-01-04T18:11:34.592Z,93952.31
2018-01-04T18:14:02.199Z,93959.35
2018-01-04T18:16:29.775Z,93956.05
2018-01-04T18:18:57.343Z,93957.62
2018-01-04T18:21:26.380Z,93957.33
2018-01-04T18:23:54.206Z,93954.61
2018-01-04T18:26:21.821Z,93952.92
2018-01-04T18:28:49.362Z,93954.73
2018-01-04T18:31:17.137Z,93959.84
2018-01-04T18:33:44.740Z,93960.70
2018-01-04T18:36:12.311Z,93961.86
2018-01-04T18:38:39.851Z,93956.53
2018-01-04T18:41:07.481Z,93961.06
2018-01-04T18:43:35.025Z,93956.41
2018-01-04T18:46:02.634Z,93954.23
2018-01-04T18:48:30.253Z,93961.40
2018-01-04T18:50:57.770Z,93956.87
2018-01-04T18:53:25.378Z,93955.72
2018-01-04T18:55:52.996Z,93965.52
2018-01-04T18:58:20.602Z,93968.60
2018-01-04T19:00:48.129Z,93962.14
2018-01-04T19:03:15.768Z,93967.78
2018-01-04T19:05:43.429Z,93970.33
2018-01-04T19:08:11.209Z,93975.22
2018-01-04T19:10:38.734Z,93973.05
2018-01-04T19:13:06.273Z,93983.67
2018-01-04T19:15:33.908Z,93984.61
2018-01-04T19:18:01.427Z,93978.16
2018-01-04T19:20:28.955Z,93978.61
2018-01-04T19:22:56.527Z,93971.13
2018-01-04T19:25:24.122Z,93968.12
2018-01-04T19:27:51.647Z,93981.70
2018-01-04T19:30:19.167Z,93991.04
2018-01-04T19:32:46.764Z,93985.07
2018-01-04T19:35:14.321Z,93986.67
2018-01-04T19:37:41.996Z,93985.36
2018-01-04T19:40:09.555Z,93986.63
2018-01-04T19:42:37.094Z,93987.50
2018-01-04T19:45:04.632Z,93990.97
2018-01-04T19:47:32.159Z,93987.13
2018-01-04T19:49:59.711Z,93991.04
2018-01-04T19:52:27.350Z,93987.25
2018-01-04T19:54:54.961Z,93985.61
2018-01-04T19:57:22.495Z,93989.80
2018-01-04T19:59:50.033Z,93987.37
2018-01-04T20:02:17.559Z,93994.95
2018-01-04T20:04:45.230Z,93993.97
2018-01-04T20:07:12.792Z,93987.17
2018-01-04T20:09:40.384Z,93986.27
2018-01-04T20:12:07.960Z,93995.44
2018-01-04T20:14:35.548Z,94000.05
2018-01-04T20:17:03.096Z,93997.50
2018-01-04T20:19:30.623Z,93994.91
2018-01-04T20:21:58.176Z,93999.48
2018-01-04T20:24:25.749Z,94002.56
2018-01-04T20:26:53.320Z,94008.00
2018-01-04T20:29:20.846Z,93998.61
2018-01-04T20:31:48.383Z,93997.45
2018-01-04T20:34:15.943Z,93998.82
2018-01-04T20:36:43.532Z,94003.02
2018-01-04T20:39:11.213Z,93998.23
2018-01-04T20:41:38.855Z,94011.53
2018-01-04T20:44:06.457Z,94001.16
2018-01-04T20:46:33.987Z,94005.16
2018-01-04T20:49:01.540Z,94003.02
2018-01-04T20:51:29.175Z,94003.59
2018-01-04T20:53:56.714Z,94004.58
2018-01-04T20:56:24.317Z,94003.96
2018-01-04T20:58:51.924Z,94000.77
2018-01-04T21:01:19.514Z,93998.45
2018-01-04T21:03:47.039Z,94006.81
2018-01-04T21:06:14.569Z,94005.08
2018-01-04T21:08:42.170Z,93998.70
2018-01-04T21:11:09.765Z,93992.78
2018-01-04T21:13:37.381Z,93996.15
2018-01-04T21:16:04.918Z,93996.56
2018-01-04T21:18:32.440Z,93995.73
2018-01-04T21:21:00.014Z,93996.60
2018-01-04T21:23:27.536Z,94006.36
2018-01-04T21:25:55.134Z,94005.86
2018-01-04T21:28:22.663Z,93998.58
2018-01-04T21:30:50.219Z,94003.64
2018-01-04T21:33:17.808Z,94003.64
2018-01-04T21:35:45.406Z,94007.83
2018-01-04T21:38:13.029Z,93999.28
2018-01-04T21:40:40.629Z,94011.34
2018-01-04T21:43:08.219Z,94012.73
2018-01-04T21:45:35.751Z,94016.11
2018-01-04T21:48:03.279Z,94017.84
2018-01-04T21:50:30.859Z,94006.81
2018-01-04T21:52:58.384Z,94007.22
2018-01-04T21:55:25.911Z,94008.86
2018-01-04T21:57:53.427Z,94015.94
2018-01-04T22:00:20.960Z,94014.21
2018-01-04T22:02:48.563Z,94009.11
2018-01-04T22:05:16.082Z,94006.14
2018-01-04T22:07:43.709Z,93997.27
2018-01-04T22:10:11.306Z,94000.27
2018-01-04T22:12:38.835Z,93993.89
2018-01-04T22:15:06.399Z,93997.83
2018-01-04T22:17:33.993Z,94003.34
2018-01-04T22:20:01.585Z,94004.79
2018-01-04T22:22:29.112Z,94009.36
2018-01-04T22:24:56.648Z,94004.02
2018-01-04T22:27:24.169Z,94005.82
2018-01-04T22:29:51.774Z,94007.55
2018-01-04T22:32:19.370Z,94005.08
2018-01-04T22:34:46.978Z,94005.53
2018-01-04T22:37:14.570Z,94009.81
2018-01-04T22:39:42.165Z,94012.02
2018-01-04T22:42:09.756Z,94012.94
2018-01-04T22:44:37.362Z,94022.61
2018-01-04T22:47:04.915Z,94017.59
2018-01-04T22:49:32.568Z,94009.69
2018-01-04T22:52:00.164Z,94011.48
2018-01-04T22:54:27.782Z,94009.89
2018-01-04T22:56:55.337Z,94007.45
2018-01-04T22:59:22.873Z,94004.16
2018-01-04T23:01:50.433Z,94002.52
2018-01-04T23:04:18.062Z,93995.81
2018-01-04T23:06:45.644Z,93995.84
2018-01-04T23:09:13.168Z,93997.58
2018-01-04T23:11:40.691Z,93994.63
2018-01-04T23:14:08.308Z,93984.38
2018-01-04T23:16:35.946Z,93979.31
2018-01-04T23:19:03.470Z,93983.09
2018-01-04T23:21:31.064Z,93976.67
2018-01-04T23:23:58.690Z,93983.84
2018-01-04T23:26:26.300Z,93990.88
2018-01-04T23:28:53.822Z,93985.93
2018-01-04T23:31:21.428Z,93984.04
2018-01-04T23:33:49.049Z,93980.91
2018-01-04T23:36:16.658Z,93974.33
2018-01-04T23:38:44.183Z,93975.72
2018-01-04T23:41:11.704Z,93973.17
2018-01-04T23:43:39.223Z,93974.04
2018-01-04T23:46:06.747Z,93969.30
2018-01-04T23:48:34.350Z,93971.03
2018-01-04T23:51:01.877Z,93976.13
2018-01-04T23:53:29.402Z,93971.90
2018-01-04T23:55:56.989Z,93965.94
2018-01-04T23:58:24.507Z,93971.90
